createdAt,value
2023-03-16T00:01:08.934Z,1.30
2023-03-16T00:03:36.301Z,1.40
2023-03-16T00:06:03.622Z,1.40
2023-03-16T00:08:30.377Z,1.40
2023-03-16T00:10:56.939Z,1.40
2023-03-16T00:13:24.989Z,1.40
2023-03-16T00:15:57.837Z,1.40
2023-03-16T00:18:28.615Z,1.50
2023-03-16T00:20:59.703Z,1.50
2023-03-16T00:23:29.765Z,1.50
2023-03-16T00:26:02.945Z,1.50
2023-03-16T00:28:34.571Z,1.50
2023-03-16T00:31:03.155Z,1.50
2023-03-16T00:33:30.216Z,1.50
2023-03-16T00:36:02.145Z,1.40
2023-03-16T00:38:31.920Z,1.30
2023-03-16T00:40:58.547Z,1.30
2023-03-16T00:43:27.199Z,1.20
2023-03-16T00:46:06.484Z,1.30
2023-03-16T00:48:34.884Z,1.20
2023-03-16T00:51:06.509Z,1.30
2023-03-16T00:53:34.373Z,1.30
2023-03-16T00:56:04.134Z,1.30
2023-03-16T00:58:35.717Z,1.30
2023-03-16T01:01:08.074Z,1.30
2023-03-16T01:03:35.779Z,1.20
2023-03-16T01:06:07.559Z,1.30
2023-03-16T01:08:34.209Z,1.30
2023-03-16T01:11:05.354Z,1.30
2023-03-16T01:13:32.565Z,1.40
2023-03-16T01:16:00.313Z,1.40
2023-03-16T01:18:29.225Z,1.40
2023-03-16T01:20:55.849Z,1.40
2023-03-16T01:23:22.465Z,1.30
2023-03-16T01:25:53.113Z,1.30
2023-03-16T01:28:25.315Z,1.30
2023-03-16T01:30:54.202Z,1.30
2023-03-16T01:33:25.242Z,1.20
2023-03-16T01:36:12.855Z,1.20
2023-03-16T01:38:39.903Z,1.20
2023-03-16T01:41:07.402Z,1.20
2023-03-16T01:43:37.280Z,1.20
2023-03-16T01:46:06.640Z,1.20
2023-03-16T01:48:39.499Z,1.20
2023-03-16T01:51:14.685Z,1.10
2023-03-16T01:53:44.557Z,1.10
2023-03-16T01:56:12.836Z,1.10
2023-03-16T01:58:41.600Z,1.10
2023-03-16T02:01:08.250Z,1.10
2023-03-16T02:03:34.982Z,1.00
2023-03-16T02:06:20.548Z,1.00
2023-03-16T02:08:49.061Z,1.00
2023-03-16T02:11:22.410Z,1.00
2023-03-16T02:13:49.683Z,1.00
2023-03-16T02:16:19.349Z,1.00
2023-03-16T02:18:47.267Z,1.00
2023-03-16T02:21:28.554Z,1.00
2023-03-16T02:23:55.169Z,1.00
2023-03-16T02:26:44.798Z,1.00
2023-03-16T02:29:41.731Z,1.00
2023-03-16T02:32:09.203Z,1.00
2023-03-16T02:34:36.204Z,1.00
2023-03-16T02:37:04.215Z,1.00
2023-03-16T02:39:30.779Z,1.00
2023-03-16T02:41:57.575Z,1.00
2023-03-16T02:44:28.799Z,0.90
2023-03-16T02:47:00.050Z,0.90
2023-03-16T02:49:37.851Z,0.90
2023-03-16T02:52:05.998Z,0.90
2023-03-16T02:54:32.658Z,0.90
2023-03-16T02:56:59.229Z,1.00
2023-03-16T02:59:25.965Z,1.00
2023-03-16T03:01:52.828Z,1.00
2023-03-16T03:04:20.276Z,1.00
2023-03-16T03:06:46.831Z,1.00
2023-03-16T03:09:13.402Z,1.00
2023-03-16T03:11:40.435Z,1.00
2023-03-16T03:14:07.034Z,1.00
2023-03-16T03:16:33.701Z,0.90
2023-03-16T03:19:00.291Z,0.90
2023-03-16T03:21:26.893Z,0.90
2023-03-16T03:23:53.684Z,0.90
2023-03-16T03:26:21.066Z,0.90
2023-03-16T03:28:47.658Z,0.90
2023-03-16T03:31:20.878Z,0.90
2023-03-16T03:33:47.671Z,0.90
2023-03-16T03:36:14.347Z,0.80
2023-03-16T03:38:41.138Z,0.80
2023-03-16T03:41:08.275Z,0.80
2023-03-16T03:43:35.094Z,0.70
2023-03-16T03:46:03.809Z,0.70
2023-03-16T03:48:30.512Z,0.70
2023-03-16T03:50:57.338Z,0.70
2023-03-16T03:53:23.931Z,0.80
2023-03-16T03:55:50.595Z,0.80
2023-03-16T03:58:17.271Z,0.90
2023-03-16T04:00:43.829Z,0.90
2023-03-16T04:03:10.683Z,1.00
2023-03-16T04:05:37.344Z,1.00
2023-03-16T04:08:04.202Z,1.10
2023-03-16T04:10:31.220Z,1.20
2023-03-16T04:12:59.435Z,1.20
2023-03-16T04:15:26.288Z,1.20
2023-03-16T04:17:52.871Z,1.30
2023-03-16T04:20:20.673Z,1.40
2023-03-16T04:22:47.620Z,1.40
2023-03-16T04:25:16.330Z,1.40
2023-03-16T04:27:43.464Z,1.50
2023-03-16T04:30:13.066Z,1.50
2023-03-16T04:32:40.543Z,1.60
2023-03-16T04:35:07.687Z,1.60
2023-03-16T04:37:34.526Z,1.70
2023-03-16T04:40:08.718Z,1.70
2023-03-16T04:42:36.322Z,1.70
2023-03-16T04:45:03.127Z,1.80
2023-03-16T04:47:30.504Z,1.80
2023-03-16T04:49:57.041Z,1.90
2023-03-16T04:52:23.837Z,1.90
2023-03-16T04:54:50.391Z,2.00
2023-03-16T04:57:19.151Z,2.00
2023-03-16T04:59:45.782Z,2.10
2023-03-16T05:02:12.401Z,2.10
2023-03-16T05:04:38.938Z,2.20
2023-03-16T05:07:05.735Z,2.20
2023-03-16T05:09:32.413Z,2.20
2023-03-16T05:11:59.625Z,2.20
2023-03-16T05:14:26.223Z,2.20
2023-03-16T05:16:53.070Z,2.20
2023-03-16T05:19:19.812Z,2.20
2023-03-16T05:21:46.422Z,2.20
2023-03-16T05:24:13.003Z,2.30
2023-03-16T05:26:39.625Z,2.30
2023-03-16T05:29:06.427Z,2.30
2023-03-16T05:31:33.139Z,2.30
2023-03-16T05:33:59.938Z,2.30
2023-03-16T05:36:26.542Z,2.40
2023-03-16T05:38:53.116Z,2.40
2023-03-16T05:41:21.331Z,2.40
2023-03-16T05:43:48.156Z,2.50
2023-03-16T05:46:14.763Z,2.50
2023-03-16T05:48:41.353Z,2.50
2023-03-16T05:51:07.954Z,2.60
2023-03-16T05:53:35.447Z,2.60
2023-03-16T05:56:02.420Z,2.60
2023-03-16T05:58:28.988Z,2.60
2023-03-16T06:00:55.605Z,2.60
2023-03-16T06:03:22.714Z,2.70
2023-03-16T06:05:49.479Z,2.70
2023-03-16T06:08:16.254Z,2.70
2023-03-16T06:10:42.859Z,2.80
2023-03-16T06:13:09.410Z,2.80
2023-03-16T06:15:36.011Z,2.80
2023-03-16T06:18:02.568Z,2.90
2023-03-16T06:20:29.429Z,2.90
2023-03-16T06:22:56.318Z,3.00
2023-03-16T06:25:23.987Z,3.00
2023-03-16T06:27:50.737Z,3.00
2023-03-16T06:30:17.908Z,3.10
2023-03-16T06:32:45.958Z,3.10
2023-03-16T06:35:13.028Z,3.10
2023-03-16T06:37:39.911Z,3.20
2023-03-16T06:40:07.287Z,3.20
2023-03-16T06:42:33.931Z,3.30
2023-03-16T06:45:00.746Z,3.30
2023-03-16T06:47:27.293Z,3.40
2023-03-16T06:49:55.450Z,3.40
2023-03-16T06:52:22.267Z,3.50
2023-03-16T06:54:48.912Z,3.60
2023-03-16T06:57:15.600Z,3.60
2023-03-16T06:59:42.215Z,3.70
2023-03-16T07:02:14.379Z,3.70
2023-03-16T07:04:41.830Z,3.80
2023-03-16T07:07:09.411Z,3.80
2023-03-16T07:09:39.148Z,3.90
2023-03-16T07:12:07.184Z,4.00
2023-03-16T07:14:33.728Z,4.00
2023-03-16T07:17:01.793Z,4.10
2023-03-16T07:19:29.226Z,4.10
2023-03-16T07:21:56.012Z,4.20
2023-03-16T07:24:22.566Z,4.20
2023-03-16T07:26:49.198Z,4.30
2023-03-16T07:29:17.026Z,4.30
2023-03-16T07:31:44.206Z,4.40
2023-03-16T07:34:11.541Z,4.50
2023-03-16T07:36:38.265Z,4.50
2023-03-16T07:39:06.404Z,4.60
2023-03-16T07:41:33.047Z,4.70
2023-03-16T07:43:59.627Z,4.80
2023-03-16T07:46:26.308Z,4.80
2023-03-16T07:48:53.089Z,4.80
2023-03-16T07:51:19.628Z,4.90
2023-03-16T07:53:46.442Z,4.90
2023-03-16T07:56:12.985Z,4.90
2023-03-16T07:58:39.617Z,4.90
2023-03-16T08:01:06.274Z,5.00
2023-03-16T08:03:32.884Z,5.10
2023-03-16T08:05:59.673Z,5.10
2023-03-16T08:08:26.265Z,5.10
2023-03-16T08:10:55.552Z,5.20
2023-03-16T08:13:23.255Z,5.30
2023-03-16T08:15:58.152Z,5.30
2023-03-16T08:18:26.408Z,5.40
2023-03-16T08:20:53.478Z,5.50
2023-03-16T08:23:21.131Z,5.50
2023-03-16T08:25:51.363Z,5.50
2023-03-16T08:28:21.391Z,5.60
2023-03-16T08:30:50.947Z,5.60
2023-03-16T08:33:18.021Z,5.70
2023-03-16T08:35:45.275Z,5.70
2023-03-16T08:38:13.463Z,5.70
2023-03-16T08:40:48.548Z,5.80
2023-03-16T08:43:17.006Z,5.80
2023-03-16T08:45:46.761Z,5.80
2023-03-16T08:48:14.283Z,5.80
2023-03-16T08:50:43.172Z,6.00
2023-03-16T08:53:11.223Z,6.10
2023-03-16T08:55:38.056Z,6.30
2023-03-16T08:58:04.670Z,6.60
2023-03-16T09:00:31.478Z,6.70
2023-03-16T09:02:58.773Z,6.90
2023-03-16T09:05:25.657Z,7.10
2023-03-16T09:07:53.450Z,7.30
2023-03-16T09:10:22.925Z,7.20
2023-03-16T09:12:50.712Z,6.90
2023-03-16T09:15:17.719Z,6.90
2023-03-16T09:17:45.732Z,7.00
2023-03-16T09:20:25.969Z,6.90
2023-03-16T09:22:55.412Z,7.00
2023-03-16T09:25:22.547Z,7.10
2023-03-16T09:27:49.149Z,7.10
2023-03-16T09:30:16.900Z,7.20
2023-03-16T09:32:43.651Z,7.20
2023-03-16T09:35:10.250Z,7.30
2023-03-16T09:37:44.947Z,7.30
2023-03-16T09:40:23.428Z,7.30
2023-03-16T09:43:35.312Z,7.20
2023-03-16T09:46:01.971Z,7.30
2023-03-16T09:48:32.688Z,7.50
2023-03-16T09:51:01.848Z,7.60
2023-03-16T09:53:35.253Z,7.60
2023-03-16T09:56:08.242Z,7.50
2023-03-16T09:58:36.425Z,7.70
2023-03-16T10:01:13.308Z,8.00
2023-03-16T10:04:07.495Z,8.20
2023-03-16T10:06:41.280Z,8.60
2023-03-16T10:09:30.224Z,8.70
2023-03-16T10:11:58.342Z,9.00
2023-03-16T10:14:59.233Z,9.70
2023-03-16T10:17:38.947Z,10.40
2023-03-16T10:20:11.333Z,10.20
2023-03-16T10:22:42.272Z,9.80
2023-03-16T10:25:13.891Z,9.60
2023-03-16T10:27:43.568Z,9.20
2023-03-16T10:30:29.135Z,8.80
2023-03-16T10:33:00.261Z,8.70
2023-03-16T10:35:38.931Z,8.90
2023-03-16T10:38:08.938Z,9.00
2023-03-16T10:40:39.661Z,9.40
2023-03-16T10:43:13.898Z,9.90
2023-03-16T10:45:43.316Z,10.00
2023-03-16T10:48:19.585Z,10.10
2023-03-16T10:50:52.880Z,9.90
2023-03-16T10:53:29.536Z,9.70
2023-03-16T10:56:02.064Z,9.60
2023-03-16T10:58:34.197Z,9.70
2023-03-16T11:01:01.567Z,10.00
2023-03-16T11:03:35.493Z,10.80
2023-03-16T11:06:05.663Z,11.30
2023-03-16T11:08:35.543Z,11.90
2023-03-16T11:11:14.589Z,12.30
2023-03-16T11:13:45.713Z,12.20
2023-03-16T11:16:33.203Z,12.50
2023-03-16T11:19:11.086Z,12.70
2023-03-16T11:21:44.682Z,12.40
2023-03-16T11:24:20.212Z,11.80
2023-03-16T11:26:53.068Z,11.50
2023-03-16T11:29:22.723Z,11.60
2023-03-16T11:31:55.182Z,11.90
2023-03-16T11:34:28.813Z,11.50
2023-03-16T11:37:00.889Z,10.90
2023-03-16T11:39:32.656Z,10.60
2023-03-16T11:42:23.859Z,10.70
2023-03-16T11:44:56.431Z,10.50
2023-03-16T11:47:50.927Z,10.30
2023-03-16T11:50:34.686Z,10.20
2023-03-16T11:53:22.887Z,10.40
2023-03-16T11:56:01.332Z,10.30
2023-03-16T11:58:49.864Z,10.10
2023-03-16T12:01:50.508Z,9.70
2023-03-16T12:04:51.860Z,9.70
2023-03-16T12:07:31.795Z,9.70
2023-03-16T12:10:07.611Z,9.60
2023-03-16T12:12:55.949Z,9.60
2023-03-16T12:15:42.437Z,9.70
2023-03-16T12:18:18.959Z,9.80
2023-03-16T12:20:57.618Z,9.80
2023-03-16T12:23:38.200Z,9.70
2023-03-16T12:26:05.192Z,9.80
2023-03-16T12:28:33.289Z,9.80
2023-03-16T12:31:10.836Z,9.80
2023-03-16T12:34:25.593Z,9.90
2023-03-16T12:36:55.748Z,10.00
2023-03-16T12:39:51.412Z,10.10
2023-03-16T12:42:24.691Z,10.00
2023-03-16T12:45:03.299Z,9.50
2023-03-16T12:47:33.556Z,9.30
2023-03-16T12:50:07.306Z,9.00
2023-03-16T12:52:48.353Z,8.80
2023-03-16T12:55:19.655Z,8.90
2023-03-16T12:57:48.876Z,8.90
2023-03-16T13:00:16.451Z,8.80
2023-03-16T13:02:54.178Z,8.80
2023-03-16T13:05:35.025Z,8.80
2023-03-16T13:08:21.335Z,8.70
2023-03-16T13:11:12.036Z,8.70
2023-03-16T13:14:02.075Z,8.50
2023-03-16T13:16:36.171Z,8.40
2023-03-16T13:19:23.402Z,8.30
2023-03-16T13:22:05.266Z,8.20
2023-03-16T13:24:42.236Z,8.00
2023-03-16T13:27:30.591Z,7.70
2023-03-16T13:30:13.284Z,7.50
2023-03-16T13:32:40.012Z,7.30
2023-03-16T13:35:14.153Z,7.00
2023-03-16T13:37:43.553Z,6.90
2023-03-16T13:40:20.208Z,6.80
2023-03-16T13:42:50.902Z,6.80
2023-03-16T13:45:24.376Z,6.80
2023-03-16T13:47:51.894Z,6.90
2023-03-16T13:50:19.372Z,7.00
2023-03-16T13:52:56.626Z,7.10
2023-03-16T13:55:31.322Z,7.30
2023-03-16T13:57:58.949Z,7.40
2023-03-16T14:00:32.239Z,7.60
2023-03-16T14:03:04.062Z,7.70
2023-03-16T14:05:35.276Z,7.90
2023-03-16T14:08:02.315Z,8.10
2023-03-16T14:10:33.191Z,8.30
2023-03-16T14:13:27.559Z,8.40
2023-03-16T14:15:56.433Z,8.50
2023-03-16T14:18:26.834Z,8.70
2023-03-16T14:20:55.658Z,8.80
2023-03-16T14:23:30.975Z,8.90
2023-03-16T14:25:57.608Z,9.10
2023-03-16T14:28:32.307Z,9.20
2023-03-16T14:31:09.198Z,9.30
2023-03-16T14:33:39.909Z,9.40
2023-03-16T14:36:18.582Z,9.50
2023-03-16T14:38:48.290Z,9.60
2023-03-16T14:41:30.542Z,9.80
2023-03-16T14:43:58.988Z,9.90
2023-03-16T14:46:40.495Z,9.90
2023-03-16T14:49:16.768Z,9.80
2023-03-16T14:51:45.803Z,9.90
2023-03-16T14:54:14.233Z,10.00
2023-03-16T14:56:42.233Z,10.00
2023-03-16T14:59:09.749Z,9.90
2023-03-16T15:01:36.826Z,9.80
2023-03-16T15:04:04.573Z,9.70
2023-03-16T15:06:32.637Z,9.70
2023-03-16T15:08:59.967Z,9.80
2023-03-16T15:11:28.788Z,9.80
2023-03-16T15:14:04.136Z,9.90
2023-03-16T15:16:30.964Z,9.80
2023-03-16T15:18:57.598Z,9.90
2023-03-16T15:21:29.498Z,9.80
2023-03-16T15:23:58.623Z,9.70
2023-03-16T15:26:27.354Z,9.70
2023-03-16T15:28:57.939Z,9.60
2023-03-16T15:31:24.635Z,9.60
2023-03-16T15:33:51.346Z,9.50
2023-03-16T15:36:20.850Z,9.50
2023-03-16T15:38:49.819Z,9.40
2023-03-16T15:41:17.398Z,9.40
2023-03-16T15:43:45.666Z,9.40
2023-03-16T15:46:12.955Z,9.30
2023-03-16T15:48:39.819Z,9.30
2023-03-16T15:51:13.184Z,9.30
2023-03-16T15:53:43.712Z,9.20
2023-03-16T15:56:13.945Z,9.20
2023-03-16T15:58:42.662Z,9.20
2023-03-16T16:01:22.740Z,9.10
2023-03-16T16:03:50.990Z,9.10
2023-03-16T16:06:18.047Z,9.00
2023-03-16T16:08:44.734Z,9.00
2023-03-16T16:11:17.792Z,9.00
2023-03-16T16:13:45.412Z,9.00
2023-03-16T16:16:14.580Z,8.90
2023-03-16T16:18:41.561Z,8.90
2023-03-16T16:21:16.800Z,8.90
2023-03-16T16:23:43.504Z,8.90
2023-03-16T16:26:41.565Z,8.90
2023-03-16T16:29:22.972Z,8.90
2023-03-16T16:31:51.302Z,8.80
2023-03-16T16:34:21.306Z,8.80
2023-03-16T16:36:48.792Z,8.80
2023-03-16T16:39:15.529Z,8.70
2023-03-16T16:41:44.051Z,8.70
2023-03-16T16:44:38.159Z,8.70
2023-03-16T16:47:14.493Z,8.70
2023-03-16T16:49:41.563Z,8.60
2023-03-16T16:52:16.272Z,8.60
2023-03-16T16:54:43.215Z,8.60
2023-03-16T16:57:19.506Z,8.50
2023-03-16T16:59:48.280Z,8.50
2023-03-16T17:02:21.952Z,8.50
2023-03-16T17:04:50.556Z,8.50
2023-03-16T17:07:17.223Z,8.50
2023-03-16T17:09:43.753Z,8.40
2023-03-16T17:12:17.809Z,8.40
2023-03-16T17:14:44.850Z,8.30
2023-03-16T17:17:15.802Z,8.30
2023-03-16T17:19:46.401Z,8.30
2023-03-16T17:22:21.837Z,8.20
2023-03-16T17:24:49.451Z,8.20
2023-03-16T17:27:20.135Z,8.10
2023-03-16T17:29:46.812Z,8.10
2023-03-16T17:32:22.353Z,8.00
2023-03-16T17:34:50.748Z,8.00
2023-03-16T17:37:20.075Z,7.90
2023-03-16T17:39:47.091Z,7.90
2023-03-16T17:42:18.306Z,7.80
2023-03-16T17:44:47.911Z,7.70
2023-03-16T17:47:20.017Z,7.60
2023-03-16T17:49:48.726Z,7.60
2023-03-16T17:52:21.420Z,7.50
2023-03-16T17:54:49.733Z,7.40
2023-03-16T17:57:18.971Z,7.50
2023-03-16T17:59:46.752Z,7.50
2023-03-16T18:02:39.470Z,7.50
2023-03-16T18:05:15.457Z,7.40
2023-03-16T18:07:42.160Z,7.40
2023-03-16T18:10:18.851Z,7.40
2023-03-16T18:12:47.639Z,7.30
2023-03-16T18:15:16.531Z,7.30
2023-03-16T18:17:44.458Z,7.30
2023-03-16T18:20:24.464Z,7.30
2023-03-16T18:22:51.076Z,7.30
2023-03-16T18:25:40.865Z,7.30
2023-03-16T18:28:08.563Z,7.30
2023-03-16T18:30:37.526Z,7.20
2023-03-16T18:33:06.592Z,7.20
2023-03-16T18:35:33.750Z,7.20
2023-03-16T18:38:00.581Z,7.20
2023-03-16T18:40:28.896Z,7.20
2023-03-16T18:42:55.819Z,7.20
2023-03-16T18:45:23.106Z,7.20
2023-03-16T18:47:55.488Z,7.10
2023-03-16T18:50:27.970Z,7.10
2023-03-16T18:52:55.278Z,7.10
2023-03-16T18:55:24.484Z,7.10
2023-03-16T18:57:52.726Z,7.10
2023-03-16T19:00:26.985Z,7.10
2023-03-16T19:02:58.689Z,7.10
2023-03-16T19:05:35.577Z,7.10
2023-03-16T19:08:04.748Z,7.00
2023-03-16T19:10:36.944Z,7.00
2023-03-16T19:13:04.406Z,7.00
2023-03-16T19:15:33.679Z,7.10
2023-03-16T19:18:00.667Z,7.10
2023-03-16T19:20:29.882Z,7.10
2023-03-16T19:23:06.359Z,7.10
2023-03-16T19:25:38.631Z,7.10
2023-03-16T19:28:07.572Z,7.10
2023-03-16T19:30:35.157Z,7.10
2023-03-16T19:33:01.786Z,7.10
2023-03-16T19:35:48.417Z,7.10
2023-03-16T19:38:15.700Z,7.10
2023-03-16T19:40:42.728Z,7.10
2023-03-16T19:43:18.448Z,7.20
2023-03-16T19:45:46.575Z,7.20
2023-03-16T19:48:22.539Z,7.20
2023-03-16T19:50:50.534Z,7.30
2023-03-16T19:53:20.577Z,7.30
2023-03-16T19:55:49.183Z,7.30
2023-03-16T19:58:20.786Z,7.30
2023-03-16T20:00:47.705Z,7.30
2023-03-16T20:03:14.599Z,7.30
2023-03-16T20:05:41.375Z,7.30
2023-03-16T20:08:26.675Z,7.30
2023-03-16T20:11:01.545Z,7.40
2023-03-16T20:13:28.506Z,7.40
2023-03-16T20:15:55.136Z,7.40
2023-03-16T20:18:21.923Z,7.40
2023-03-16T20:20:48.485Z,7.40
2023-03-16T20:23:25.588Z,7.40
2023-03-16T20:25:56.272Z,7.50
2023-03-16T20:28:30.006Z,7.40
2023-03-16T20:30:56.730Z,7.40
2023-03-16T20:33:25.328Z,7.40
2023-03-16T20:35:56.124Z,7.40
2023-03-16T20:38:23.730Z,7.30
2023-03-16T20:40:52.544Z,7.30
2023-03-16T20:43:31.307Z,7.30
2023-03-16T20:46:00.448Z,7.30
2023-03-16T20:48:27.827Z,7.30
2023-03-16T20:50:56.039Z,7.30
2023-03-16T20:53:23.497Z,7.30
2023-03-16T20:55:51.414Z,7.30
2023-03-16T20:58:24.689Z,7.30
2023-03-16T21:00:53.136Z,7.30
2023-03-16T21:03:22.960Z,7.30
2023-03-16T21:05:51.491Z,7.20
2023-03-16T21:08:19.042Z,7.30
2023-03-16T21:10:48.457Z,7.30
2023-03-16T21:13:25.857Z,7.30
2023-03-16T21:15:55.839Z,7.20
2023-03-16T21:18:22.569Z,7.20
2023-03-16T21:20:50.483Z,7.10
2023-03-16T21:23:23.079Z,7.10
2023-03-16T21:25:54.733Z,7.10
2023-03-16T21:28:23.098Z,7.00
2023-03-16T21:30:52.732Z,7.00
2023-03-16T21:33:39.790Z,7.00
2023-03-16T21:36:13.634Z,7.00
2023-03-16T21:38:40.438Z,6.90
2023-03-16T21:41:07.437Z,6.90
2023-03-16T21:43:34.077Z,6.90
2023-03-16T21:46:01.200Z,6.80
2023-03-16T21:48:35.763Z,6.80
2023-03-16T21:51:02.881Z,6.80
2023-03-16T21:53:33.253Z,6.70
2023-03-16T21:56:00.250Z,6.70
2023-03-16T21:58:27.254Z,6.60
2023-03-16T22:00:55.066Z,6.60
2023-03-16T22:03:49.623Z,6.60
2023-03-16T22:06:17.001Z,6.50
2023-03-16T22:08:43.885Z,6.50
2023-03-16T22:11:16.849Z,6.60
2023-03-16T22:13:43.463Z,6.60
2023-03-16T22:16:16.071Z,6.60
2023-03-16T22:18:44.961Z,6.60
2023-03-16T22:21:41.925Z,6.60
2023-03-16T22:24:16.590Z,6.60
2023-03-16T22:26:43.143Z,6.50
2023-03-16T22:29:30.049Z,6.50
2023-03-16T22:32:04.245Z,6.50
2023-03-16T22:34:52.216Z,6.50
2023-03-16T22:37:25.578Z,6.50
2023-03-16T22:39:53.508Z,6.50
2023-03-16T22:42:38.343Z,6.50
2023-03-16T22:45:21.939Z,6.40
2023-03-16T22:47:48.580Z,6.40
2023-03-16T22:50:16.638Z,6.40
2023-03-16T22:52:45.378Z,6.40
2023-03-16T22:55:19.530Z,6.40
2023-03-16T22:57:47.178Z,6.40
2023-03-16T23:00:14.530Z,6.40
2023-03-16T23:02:41.222Z,6.40
2023-03-16T23:05:22.960Z,6.40
2023-03-16T23:07:50.529Z,6.30
2023-03-16T23:10:18.782Z,6.30
2023-03-16T23:12:45.632Z,6.40
2023-03-16T23:15:18.316Z,6.40
2023-03-16T23:17:45.187Z,6.30
2023-03-16T23:20:24.675Z,6.30
2023-03-16T23:22:52.764Z,6.30
2023-03-16T23:25:20.451Z,6.40
2023-03-16T23:27:47.558Z,6.40
2023-03-16T23:30:20.689Z,6.40
2023-03-16T23:32:47.811Z,6.40
2023-03-16T23:35:28.956Z,6.40
2023-03-16T23:37:56.840Z,6.40
2023-03-16T23:40:26.112Z,6.40
2023-03-16T23:42:55.811Z,6.30
2023-03-16T23:45:39.973Z,6.30
2023-03-16T23:48:12.556Z,6.30
2023-03-16T23:50:41.231Z,6.30
2023-03-16T23:53:13.049Z,6.30
2023-03-16T23:55:41.223Z,6.30
2023-03-16T23:58:08.883Z,6.30
